sensor_id;sensor_type;location;lat;lon;timestamp;pressure;altitude;pressure_sealevel;temperature;humidity
71964;BME280;59834;52.124;5.422;2023-06-10T00:00:47;101537.69;;;20.71;51.83
71964;BME280;59834;52.124;5.422;2023-06-10T00:03:13;101540.34;;;20.71;51.67
71964;BME280;59834;52.124;5.422;2023-06-10T00:05:41;101537.16;;;20.68;51.42
71964;BME280;59834;52.124;5.422;2023-06-10T00:08:07;101541.09;;;20.64;51.13
71964;BME280;59834;52.124;5.422;2023-06-10T00:10:35;101540.38;;;20.62;51.36
71964;BME280;59834;52.124;5.422;2023-06-10T00:13:03;101552.03;;;20.61;51.23
71964;BME280;59834;52.124;5.422;2023-06-10T00:15:30;101555.81;;;20.58;51.09
71964;BME280;59834;52.124;5.422;2023-06-10T00:17:57;101540.00;;;20.57;51.17
71964;BME280;59834;52.124;5.422;2023-06-10T00:20:24;101548.09;;;20.55;50.97
71964;BME280;59834;52.124;5.422;2023-06-10T00:22:51;101549.38;;;20.51;50.83
71964;BME280;59834;52.124;5.422;2023-06-10T00:25:18;101549.94;;;20.45;50.84
71964;BME280;59834;52.124;5.422;2023-06-10T00:27:45;101549.53;;;20.40;50.98
71964;BME280;59834;52.124;5.422;2023-06-10T00:30:12;101549.13;;;20.35;50.83
71964;BME280;59834;52.124;5.422;2023-06-10T00:32:38;101548.84;;;20.38;50.92
71964;BME280;59834;52.124;5.422;2023-06-10T00:35:06;101551.09;;;20.33;50.46
71964;BME280;59834;52.124;5.422;2023-06-10T00:37:34;101548.03;;;20.28;50.54
71964;BME280;59834;52.124;5.422;2023-06-10T00:40:04;101554.63;;;20.23;50.54
71964;BME280;59834;52.124;5.422;2023-06-10T00:42:31;101556.44;;;20.23;50.30
71964;BME280;59834;52.124;5.422;2023-06-10T00:44:58;101556.16;;;20.16;50.41
71964;BME280;59834;52.124;5.422;2023-06-10T00:47:25;101556.56;;;20.12;50.20
71964;BME280;59834;52.124;5.422;2023-06-10T00:49:52;101554.22;;;20.09;49.86
71964;BME280;59834;52.124;5.422;2023-06-10T00:52:20;101554.34;;;20.07;49.79
71964;BME280;59834;52.124;5.422;2023-06-10T00:54:48;101558.13;;;20.05;50.58
71964;BME280;59834;52.124;5.422;2023-06-10T00:57:15;101552.13;;;20.02;49.83
71964;BME280;59834;52.124;5.422;2023-06-10T00:59:43;101553.53;;;19.97;49.71
71964;BME280;59834;52.124;5.422;2023-06-10T01:02:13;101554.38;;;19.97;49.77
71964;BME280;59834;52.124;5.422;2023-06-10T01:04:40;101558.13;;;19.95;49.86
71964;BME280;59834;52.124;5.422;2023-06-10T01:07:25;101554.09;;;19.91;49.68
71964;BME280;59834;52.124;5.422;2023-06-10T01:10:11;101559.84;;;19.86;49.82
71964;BME280;59834;52.124;5.422;2023-06-10T01:13:02;101548.78;;;19.81;49.79
71964;BME280;59834;52.124;5.422;2023-06-10T01:15:30;101563.03;;;19.80;49.59
71964;BME280;59834;52.124;5.422;2023-06-10T01:17:59;101564.88;;;19.80;49.70
71964;BME280;59834;52.124;5.422;2023-06-10T01:20:26;101564.03;;;19.79;49.68
71964;BME280;59834;52.124;5.422;2023-06-10T01:22:56;101563.47;;;19.75;49.70
71964;BME280;59834;52.124;5.422;2023-06-10T01:25:26;101561.09;;;19.72;49.53
71964;BME280;59834;52.124;5.422;2023-06-10T01:28:06;101565.69;;;19.70;49.68
71964;BME280;59834;52.124;5.422;2023-06-10T01:30:46;101567.06;;;19.65;50.01
71964;BME280;59834;52.124;5.422;2023-06-10T01:33:17;101571.56;;;19.64;50.19
71964;BME280;59834;52.124;5.422;2023-06-10T01:35:47;101563.81;;;19.61;50.32
71964;BME280;59834;52.124;5.422;2023-06-10T01:38:15;101567.63;;;19.59;50.56
71964;BME280;59834;52.124;5.422;2023-06-10T01:40:42;101567.06;;;19.55;50.40
71964;BME280;59834;52.124;5.422;2023-06-10T01:43:09;101565.63;;;19.51;50.44
71964;BME280;59834;52.124;5.422;2023-06-10T01:45:35;101563.13;;;19.49;50.56
71964;BME280;59834;52.124;5.422;2023-06-10T01:48:02;101566.78;;;19.48;50.47
71964;BME280;59834;52.124;5.422;2023-06-10T01:50:28;101562.69;;;19.44;50.89
71964;BME280;59834;52.124;5.422;2023-06-10T01:52:57;101563.84;;;19.42;51.22
71964;BME280;59834;52.124;5.422;2023-06-10T01:55:24;101564.94;;;19.39;51.13
71964;BME280;59834;52.124;5.422;2023-06-10T01:57:51;101565.78;;;19.40;51.27
71964;BME280;59834;52.124;5.422;2023-06-10T02:00:18;101560.59;;;19.38;51.44
71964;BME280;59834;52.124;5.422;2023-06-10T02:02:44;101561.00;;;19.34;51.66
71964;BME280;59834;52.124;5.422;2023-06-10T02:05:11;101573.72;;;19.30;51.65
71964;BME280;59834;52.124;5.422;2023-06-10T02:07:38;101573.16;;;19.26;51.76
71964;BME280;59834;52.124;5.422;2023-06-10T02:10:06;101574.25;;;19.24;51.93
71964;BME280;59834;52.124;5.422;2023-06-10T02:12:33;101577.06;;;19.22;52.07
71964;BME280;59834;52.124;5.422;2023-06-10T02:14:59;101572.00;;;19.19;52.42
71964;BME280;59834;52.124;5.422;2023-06-10T02:17:26;101574.66;;;19.19;53.01
71964;BME280;59834;52.124;5.422;2023-06-10T02:19:53;101573.38;;;19.14;53.02
71964;BME280;59834;52.124;5.422;2023-06-10T02:22:21;101571.84;;;19.11;52.91
71964;BME280;59834;52.124;5.422;2023-06-10T02:24:48;101578.38;;;19.07;52.90
71964;BME280;59834;52.124;5.422;2023-06-10T02:27:18;101583.00;;;19.05;53.44
71964;BME280;59834;52.124;5.422;2023-06-10T02:29:44;101584.94;;;19.03;53.58
71964;BME280;59834;52.124;5.422;2023-06-10T02:32:11;101585.47;;;18.97;53.59
71964;BME280;59834;52.124;5.422;2023-06-10T02:34:37;101592.03;;;18.93;54.20
71964;BME280;59834;52.124;5.422;2023-06-10T02:37:05;101588.66;;;18.91;53.83
71964;BME280;59834;52.124;5.422;2023-06-10T02:39:31;101590.47;;;18.90;54.41
71964;BME280;59834;52.124;5.422;2023-06-10T02:41:58;101591.72;;;18.86;54.21
71964;BME280;59834;52.124;5.422;2023-06-10T02:44:25;101587.66;;;18.82;54.63
71964;BME280;59834;52.124;5.422;2023-06-10T02:46:52;101584.28;;;18.80;54.70
71964;BME280;59834;52.124;5.422;2023-06-10T02:49:19;101589.75;;;18.78;54.80
71964;BME280;59834;52.124;5.422;2023-06-10T02:51:45;101595.88;;;18.79;55.24
71964;BME280;59834;52.124;5.422;2023-06-10T02:54:12;101594.47;;;18.75;55.30
71964;BME280;59834;52.124;5.422;2023-06-10T02:56:39;101591.31;;;18.70;55.62
71964;BME280;59834;52.124;5.422;2023-06-10T02:59:09;101587.38;;;18.64;55.43
71964;BME280;59834;52.124;5.422;2023-06-10T03:01:35;101585.97;;;18.60;55.78
71964;BME280;59834;52.124;5.422;2023-06-10T03:04:07;101586.94;;;18.59;55.42
71964;BME280;59834;52.124;5.422;2023-06-10T03:06:34;101586.22;;;18.57;56.09
71964;BME280;59834;52.124;5.422;2023-06-10T03:09:02;101589.88;;;18.56;56.07
71964;BME280;59834;52.124;5.422;2023-06-10T03:11:30;101591.09;;;18.52;56.71
71964;BME280;59834;52.124;5.422;2023-06-10T03:13:57;101584.38;;;18.48;56.78
71964;BME280;59834;52.124;5.422;2023-06-10T03:16:23;101592.34;;;18.48;56.80
71964;BME280;59834;52.124;5.422;2023-06-10T03:18:51;101595.94;;;18.47;56.71
71964;BME280;59834;52.124;5.422;2023-06-10T03:21:18;101593.28;;;18.47;57.04
71964;BME280;59834;52.124;5.422;2023-06-10T03:23:45;101597.03;;;18.44;57.41
71964;BME280;59834;52.124;5.422;2023-06-10T03:26:11;101590.19;;;18.42;57.06
71964;BME280;59834;52.124;5.422;2023-06-10T03:28:40;101593.94;;;18.39;56.94
71964;BME280;59834;52.124;5.422;2023-06-10T03:31:07;101593.13;;;18.38;57.74
71964;BME280;59834;52.124;5.422;2023-06-10T03:33:34;101596.03;;;18.35;57.92
71964;BME280;59834;52.124;5.422;2023-06-10T03:36:00;101598.91;;;18.32;57.90
71964;BME280;59834;52.124;5.422;2023-06-10T03:38:27;101596.28;;;18.32;57.88
71964;BME280;59834;52.124;5.422;2023-06-10T03:40:53;101598.09;;;18.32;57.58
71964;BME280;59834;52.124;5.422;2023-06-10T03:43:20;101600.59;;;18.33;58.28
71964;BME280;59834;52.124;5.422;2023-06-10T03:45:47;101604.47;;;18.29;57.78
71964;BME280;59834;52.124;5.422;2023-06-10T03:48:15;101602.56;;;18.31;57.87
71964;BME280;59834;52.124;5.422;2023-06-10T03:50:43;101608.69;;;18.32;57.80
71964;BME280;59834;52.124;5.422;2023-06-10T03:53:09;101605.19;;;18.31;57.95
71964;BME280;59834;52.124;5.422;2023-06-10T03:55:36;101609.53;;;18.32;58.27
71964;BME280;59834;52.124;5.422;2023-06-10T03:58:02;101611.91;;;18.35;58.62
71964;BME280;59834;52.124;5.422;2023-06-10T04:00:29;101605.63;;;18.36;58.60
71964;BME280;59834;52.124;5.422;2023-06-10T04:02:56;101610.81;;;18.38;58.06
71964;BME280;59834;52.124;5.422;2023-06-10T04:05:24;101610.09;;;18.36;58.90
71964;BME280;59834;52.124;5.422;2023-06-10T04:07:51;101612.50;;;18.39;58.64
71964;BME280;59834;52.124;5.422;2023-06-10T04:10:17;101609.78;;;18.71;58.09
71964;BME280;59834;52.124;5.422;2023-06-10T04:12:44;101610.84;;;19.70;55.34
71964;BME280;59834;52.124;5.422;2023-06-10T04:15:11;101607.94;;;20.79;52.58
71964;BME280;59834;52.124;5.422;2023-06-10T04:17:38;101607.88;;;21.26;50.90
71964;BME280;59834;52.124;5.422;2023-06-10T04:20:05;101605.03;;;21.64;49.72
71964;BME280;59834;52.124;5.422;2023-06-10T04:22:34;101610.59;;;21.89;49.32
71964;BME280;59834;52.124;5.422;2023-06-10T04:25:00;101612.78;;;22.29;48.27
71964;BME280;59834;52.124;5.422;2023-06-10T04:27:27;101613.13;;;22.52;48.05
71964;BME280;59834;52.124;5.422;2023-06-10T04:29:54;101611.88;;;22.65;47.12
71964;BME280;59834;52.124;5.422;2023-06-10T04:32:20;101615.06;;;22.94;46.38
71964;BME280;59834;52.124;5.422;2023-06-10T04:34:48;101624.44;;;22.98;46.93
71964;BME280;59834;52.124;5.422;2023-06-10T04:37:16;101620.50;;;23.19;46.68
71964;BME280;59834;52.124;5.422;2023-06-10T04:39:43;101615.22;;;23.35;45.84
71964;BME280;59834;52.124;5.422;2023-06-10T04:42:09;101622.72;;;23.32;45.51
71964;BME280;59834;52.124;5.422;2023-06-10T04:44:36;101619.84;;;23.84;45.16
71964;BME280;59834;52.124;5.422;2023-06-10T04:47:03;101620.38;;;24.53;43.94
71964;BME280;59834;52.124;5.422;2023-06-10T04:49:30;101620.66;;;24.82;43.12
71964;BME280;59834;52.124;5.422;2023-06-10T04:51:56;101625.41;;;25.11;42.48
71964;BME280;59834;52.124;5.422;2023-06-10T04:54:23;101626.09;;;25.05;42.16
71964;BME280;59834;52.124;5.422;2023-06-10T04:56:49;101629.59;;;25.22;41.83
71964;BME280;59834;52.124;5.422;2023-06-10T04:59:16;101630.59;;;25.05;42.30
71964;BME280;59834;52.124;5.422;2023-06-10T05:01:43;101630.34;;;25.31;41.95
71964;BME280;59834;52.124;5.422;2023-06-10T05:04:10;101627.88;;;25.21;41.89
71964;BME280;59834;52.124;5.422;2023-06-10T05:06:36;101635.31;;;24.94;42.96
71964;BME280;59834;52.124;5.422;2023-06-10T05:09:03;101631.97;;;25.01;43.02
71964;BME280;59834;52.124;5.422;2023-06-10T05:11:30;101633.16;;;25.46;42.06
71964;BME280;59834;52.124;5.422;2023-06-10T05:13:56;101627.19;;;25.35;42.18
71964;BME280;59834;52.124;5.422;2023-06-10T05:16:23;101629.28;;;25.71;41.31
71964;BME280;59834;52.124;5.422;2023-06-10T05:18:50;101626.75;;;26.01;41.27
71964;BME280;59834;52.124;5.422;2023-06-10T05:21:18;101624.44;;;25.98;41.43
71964;BME280;59834;52.124;5.422;2023-06-10T05:23:45;101623.59;;;26.20;40.38
71964;BME280;59834;52.124;5.422;2023-06-10T05:26:12;101622.94;;;25.95;40.71
71964;BME280;59834;52.124;5.422;2023-06-10T05:28:38;101621.25;;;26.02;41.28
71964;BME280;59834;52.124;5.422;2023-06-10T05:31:05;101623.22;;;26.23;41.21
71964;BME280;59834;52.124;5.422;2023-06-10T05:33:32;101621.03;;;26.42;40.20
71964;BME280;59834;52.124;5.422;2023-06-10T05:35:58;101624.44;;;26.36;40.69
71964;BME280;59834;52.124;5.422;2023-06-10T05:38:25;101628.97;;;26.35;40.85
71964;BME280;59834;52.124;5.422;2023-06-10T05:40:52;101626.09;;;26.60;40.31
71964;BME280;59834;52.124;5.422;2023-06-10T05:43:18;101634.03;;;26.15;41.33
71964;BME280;59834;52.124;5.422;2023-06-10T05:45:46;101630.00;;;26.34;40.98
71964;BME280;59834;52.124;5.422;2023-06-10T05:48:13;101632.41;;;26.67;40.92
71964;BME280;59834;52.124;5.422;2023-06-10T05:50:39;101636.84;;;27.04;39.95
71964;BME280;59834;52.124;5.422;2023-06-10T05:53:08;101643.13;;;27.11;38.86
71964;BME280;59834;52.124;5.422;2023-06-10T05:55:42;101642.41;;;26.73;40.79
71964;BME280;59834;52.124;5.422;2023-06-10T05:58:10;101641.66;;;26.79;39.73
71964;BME280;59834;52.124;5.422;2023-06-10T06:00:39;101633.75;;;26.48;40.06
71964;BME280;59834;52.124;5.422;2023-06-10T06:03:09;101631.00;;;26.56;39.91
71964;BME280;59834;52.124;5.422;2023-06-10T06:05:37;101634.63;;;26.78;39.94
71964;BME280;59834;52.124;5.422;2023-06-10T06:08:05;101626.59;;;26.93;39.64
71964;BME280;59834;52.124;5.422;2023-06-10T06:10:32;101632.97;;;27.07;39.50
71964;BME280;59834;52.124;5.422;2023-06-10T06:12:59;101632.44;;;26.44;40.31
71964;BME280;59834;52.124;5.422;2023-06-10T06:15:26;101632.13;;;26.01;41.41
71964;BME280;59834;52.124;5.422;2023-06-10T06:17:53;101633.78;;;26.25;40.63
71964;BME280;59834;52.124;5.422;2023-06-10T06:20:20;101633.72;;;26.33;40.95
71964;BME280;59834;52.124;5.422;2023-06-10T06:22:47;101634.69;;;26.55;40.88
71964;BME280;59834;52.124;5.422;2023-06-10T06:25:13;101635.09;;;26.82;40.04
71964;BME280;59834;52.124;5.422;2023-06-10T06:27:40;101627.50;;;27.15;39.70
71964;BME280;59834;52.124;5.422;2023-06-10T06:30:07;101631.94;;;26.78;39.45
71964;BME280;59834;52.124;5.422;2023-06-10T06:32:34;101624.53;;;26.65;39.67
71964;BME280;59834;52.124;5.422;2023-06-10T06:35:01;101628.44;;;26.63;39.91
71964;BME280;59834;52.124;5.422;2023-06-10T06:37:28;101622.47;;;26.52;40.43
71964;BME280;59834;52.124;5.422;2023-06-10T06:39:57;101626.50;;;26.33;40.45
71964;BME280;59834;52.124;5.422;2023-06-10T06:42:27;101620.75;;;26.60;39.45
71964;BME280;59834;52.124;5.422;2023-06-10T06:44:54;101629.88;;;26.65;40.09
71964;BME280;59834;52.124;5.422;2023-06-10T06:47:20;101627.69;;;26.84;40.15
71964;BME280;59834;52.124;5.422;2023-06-10T06:49:47;101624.31;;;27.11;39.34
71964;BME280;59834;52.124;5.422;2023-06-10T06:52:16;101628.78;;;27.04;39.69
71964;BME280;59834;52.124;5.422;2023-06-10T06:54:43;101627.78;;;27.20;38.97
71964;BME280;59834;52.124;5.422;2023-06-10T06:57:10;101636.84;;;27.19;38.85
71964;BME280;59834;52.124;5.422;2023-06-10T06:59:36;101633.59;;;27.09;39.00
71964;BME280;59834;52.124;5.422;2023-06-10T07:02:03;101632.56;;;26.65;39.30
71964;BME280;59834;52.124;5.422;2023-06-10T07:04:30;101632.41;;;26.82;39.76
71964;BME280;59834;52.124;5.422;2023-06-10T07:06:57;101633.97;;;26.76;39.60
71964;BME280;59834;52.124;5.422;2023-06-10T07:09:23;101639.81;;;26.65;39.81
71964;BME280;59834;52.124;5.422;2023-06-10T07:11:50;101639.91;;;26.56;40.37
71964;BME280;59834;52.124;5.422;2023-06-10T07:14:16;101639.44;;;26.97;40.63
71964;BME280;59834;52.124;5.422;2023-06-10T07:16:43;101645.56;;;26.39;40.62
71964;BME280;59834;52.124;5.422;2023-06-10T07:19:11;101640.47;;;25.52;42.56
71964;BME280;59834;52.124;5.422;2023-06-10T07:21:38;101647.00;;;25.18;43.47
71964;BME280;59834;52.124;5.422;2023-06-10T07:24:05;101634.28;;;25.04;44.06
71964;BME280;59834;52.124;5.422;2023-06-10T07:26:32;101646.38;;;24.91;43.80
71964;BME280;59834;52.124;5.422;2023-06-10T07:28:58;101645.25;;;24.78;44.30
71964;BME280;59834;52.124;5.422;2023-06-10T07:31:25;101651.47;;;24.70;44.29
71964;BME280;59834;52.124;5.422;2023-06-10T07:33:52;101648.66;;;24.47;44.22
71964;BME280;59834;52.124;5.422;2023-06-10T07:36:18;101644.94;;;24.64;45.07
71964;BME280;59834;52.124;5.422;2023-06-10T07:38:46;101644.56;;;24.84;44.65
71964;BME280;59834;52.124;5.422;2023-06-10T07:41:12;101645.25;;;24.86;44.37
71964;BME280;59834;52.124;5.422;2023-06-10T07:43:39;101645.09;;;24.79;44.95
71964;BME280;59834;52.124;5.422;2023-06-10T07:46:06;101649.13;;;24.67;44.54
71964;BME280;59834;52.124;5.422;2023-06-10T07:48:33;101650.75;;;24.84;44.60
71964;BME280;59834;52.124;5.422;2023-06-10T07:50:59;101649.34;;;25.05;43.84
71964;BME280;59834;52.124;5.422;2023-06-10T07:53:26;101657.09;;;24.91;44.15
71964;BME280;59834;52.124;5.422;2023-06-10T07:55:53;101653.38;;;25.01;43.86
71964;BME280;59834;52.124;5.422;2023-06-10T07:58:20;101657.75;;;25.02;44.04
71964;BME280;59834;52.124;5.422;2023-06-10T08:00:47;101658.72;;;25.17;43.42
71964;BME280;59834;52.124;5.422;2023-06-10T08:03:14;101659.41;;;25.03;44.25
71964;BME280;59834;52.124;5.422;2023-06-10T08:05:41;101656.56;;;25.12;44.14
71964;BME280;59834;52.124;5.422;2023-06-10T08:08:07;101664.81;;;25.42;44.42
71964;BME280;59834;52.124;5.422;2023-06-10T08:10:34;101653.50;;;25.55;43.72
71964;BME280;59834;52.124;5.422;2023-06-10T08:13:01;101655.19;;;25.56;43.26
71964;BME280;59834;52.124;5.422;2023-06-10T08:15:27;101654.78;;;25.67;42.82
71964;BME280;59834;52.124;5.422;2023-06-10T08:17:54;101653.59;;;25.70;43.27
71964;BME280;59834;52.124;5.422;2023-06-10T08:20:21;101652.59;;;25.71;42.47
71964;BME280;59834;52.124;5.422;2023-06-10T08:22:47;101652.25;;;25.74;42.26
71964;BME280;59834;52.124;5.422;2023-06-10T08:25:14;101646.28;;;25.63;43.11
71964;BME280;59834;52.124;5.422;2023-06-10T08:27:40;101644.50;;;25.79;44.02
71964;BME280;59834;52.124;5.422;2023-06-10T08:30:07;101642.16;;;26.07;41.92
71964;BME280;59834;52.124;5.422;2023-06-10T08:32:36;101647.41;;;26.00;42.11
71964;BME280;59834;52.124;5.422;2023-06-10T08:35:03;101646.81;;;25.90;41.71
71964;BME280;59834;52.124;5.422;2023-06-10T08:37:30;101647.28;;;25.94;41.65
71964;BME280;59834;52.124;5.422;2023-06-10T08:39:57;101648.00;;;25.88;41.32
71964;BME280;59834;52.124;5.422;2023-06-10T08:45:27;101646.66;;;26.29;41.62
71964;BME280;59834;52.124;5.422;2023-06-10T08:47:57;101651.28;;;26.36;41.64
71964;BME280;59834;52.124;5.422;2023-06-10T08:50:24;101644.97;;;26.51;42.05
71964;BME280;59834;52.124;5.422;2023-06-10T08:52:54;101642.59;;;26.33;40.50
71964;BME280;59834;52.124;5.422;2023-06-10T08:55:26;101646.50;;;26.46;41.29
71964;BME280;59834;52.124;5.422;2023-06-10T08:58:01;101649.25;;;26.38;41.35
71964;BME280;59834;52.124;5.422;2023-06-10T09:00:29;101641.66;;;26.64;41.32
71964;BME280;59834;52.124;5.422;2023-06-10T09:02:57;101652.97;;;26.60;40.16
71964;BME280;59834;52.124;5.422;2023-06-10T09:05:28;101645.38;;;26.63;39.49
71964;BME280;59834;52.124;5.422;2023-06-10T09:07:57;101652.75;;;26.61;38.98
71964;BME280;59834;52.124;5.422;2023-06-10T09:10:24;101652.41;;;26.79;39.57
71964;BME280;59834;52.124;5.422;2023-06-10T09:12:51;101643.53;;;26.93;39.84
71964;BME280;59834;52.124;5.422;2023-06-10T09:15:18;101646.19;;;27.08;38.47
71964;BME280;59834;52.124;5.422;2023-06-10T09:17:44;101641.19;;;27.05;38.90
71964;BME280;59834;52.124;5.422;2023-06-10T09:20:12;101649.34;;;27.12;37.56
71964;BME280;59834;52.124;5.422;2023-06-10T09:22:41;101642.69;;;27.22;37.23
71964;BME280;59834;52.124;5.422;2023-06-10T09:25:10;101649.06;;;27.36;38.20
71964;BME280;59834;52.124;5.422;2023-06-10T09:27:45;101648.84;;;27.16;39.20
71964;BME280;59834;52.124;5.422;2023-06-10T09:30:28;101647.88;;;27.24;37.72
71964;BME280;59834;52.124;5.422;2023-06-10T09:32:57;101640.91;;;27.30;36.80
71964;BME280;59834;52.124;5.422;2023-06-10T09:35:25;101641.84;;;27.37;37.94
71964;BME280;59834;52.124;5.422;2023-06-10T09:37:56;101641.53;;;27.46;37.25
71964;BME280;59834;52.124;5.422;2023-06-10T09:40:24;101638.78;;;27.40;37.19
71964;BME280;59834;52.124;5.422;2023-06-10T09:42:59;101646.19;;;27.38;38.59
71964;BME280;59834;52.124;5.422;2023-06-10T09:45:30;101639.56;;;27.55;37.57
71964;BME280;59834;52.124;5.422;2023-06-10T09:48:00;101639.94;;;27.88;35.01
71964;BME280;59834;52.124;5.422;2023-06-10T09:50:27;101641.94;;;28.01;35.76
71964;BME280;59834;52.124;5.422;2023-06-10T09:52:54;101634.97;;;27.70;36.34
71964;BME280;59834;52.124;5.422;2023-06-10T09:55:21;101634.16;;;27.70;36.21
71964;BME280;59834;52.124;5.422;2023-06-10T09:57:53;101640.44;;;27.99;35.97
71964;BME280;59834;52.124;5.422;2023-06-10T10:00:22;101631.94;;;27.95;35.16
71964;BME280;59834;52.124;5.422;2023-06-10T10:02:51;101637.00;;;28.05;35.30
71964;BME280;59834;52.124;5.422;2023-06-10T10:05:20;101638.97;;;27.96;34.61
71964;BME280;59834;52.124;5.422;2023-06-10T10:07:48;101642.19;;;27.85;35.04
71964;BME280;59834;52.124;5.422;2023-06-10T10:10:18;101639.97;;;28.16;35.01
71964;BME280;59834;52.124;5.422;2023-06-10T10:12:48;101631.81;;;27.82;34.76
71964;BME280;59834;52.124;5.422;2023-06-10T10:15:16;101629.25;;;27.95;34.65
71964;BME280;59834;52.124;5.422;2023-06-10T10:17:48;101634.41;;;27.96;34.56
71964;BME280;59834;52.124;5.422;2023-06-10T10:20:20;101626.06;;;28.13;34.43
71964;BME280;59834;52.124;5.422;2023-06-10T10:22:49;101621.13;;;28.38;34.22
71964;BME280;59834;52.124;5.422;2023-06-10T10:25:17;101621.75;;;28.40;31.45
71964;BME280;59834;52.124;5.422;2023-06-10T10:30:20;101622.47;;;28.49;33.74
71964;BME280;59834;52.124;5.422;2023-06-10T10:35:42;101615.91;;;28.36;32.64
71964;BME280;59834;52.124;5.422;2023-06-10T10:38:09;101614.59;;;28.54;32.46
71964;BME280;59834;52.124;5.422;2023-06-10T10:40:38;101616.28;;;28.55;31.54
71964;BME280;59834;52.124;5.422;2023-06-10T10:43:05;101613.44;;;28.35;32.30
71964;BME280;59834;52.124;5.422;2023-06-10T10:45:34;101610.06;;;28.54;31.76
71964;BME280;59834;52.124;5.422;2023-06-10T10:48:05;101612.50;;;28.84;32.47
71964;BME280;59834;52.124;5.422;2023-06-10T10:50:35;101603.84;;;28.88;30.52
71964;BME280;59834;52.124;5.422;2023-06-10T10:53:03;101612.31;;;28.85;30.47
71964;BME280;59834;52.124;5.422;2023-06-10T10:55:31;101610.22;;;28.81;29.87
71964;BME280;59834;52.124;5.422;2023-06-10T10:57:59;101607.53;;;28.81;30.00
71964;BME280;59834;52.124;5.422;2023-06-10T11:00:36;101606.50;;;28.82;29.71
71964;BME280;59834;52.124;5.422;2023-06-10T11:03:06;101601.34;;;28.94;29.94
71964;BME280;59834;52.124;5.422;2023-06-10T11:08:05;101605.66;;;29.23;29.40
71964;BME280;59834;52.124;5.422;2023-06-10T11:10:34;101595.94;;;29.28;30.01
71964;BME280;59834;52.124;5.422;2023-06-10T11:13:14;101592.81;;;29.25;29.77
71964;BME280;59834;52.124;5.422;2023-06-10T11:15:45;101600.69;;;29.20;29.73
71964;BME280;59834;52.124;5.422;2023-06-10T11:18:22;101595.69;;;29.17;30.07
71964;BME280;59834;52.124;5.422;2023-06-10T11:23:42;101579.34;;;29.25;30.98
71964;BME280;59834;52.124;5.422;2023-06-10T11:26:30;101581.19;;;29.31;29.24
71964;BME280;59834;52.124;5.422;2023-06-10T11:34:01;101582.28;;;29.36;30.42
71964;BME280;59834;52.124;5.422;2023-06-10T11:36:29;101576.09;;;29.56;29.16
71964;BME280;59834;52.124;5.422;2023-06-10T11:38:57;101579.41;;;29.51;28.90
71964;BME280;59834;52.124;5.422;2023-06-10T11:41:26;101571.44;;;29.23;28.48
71964;BME280;59834;52.124;5.422;2023-06-10T11:43:54;101573.91;;;29.11;29.51
71964;BME280;59834;52.124;5.422;2023-06-10T11:46:24;101571.66;;;29.22;30.63
71964;BME280;59834;52.124;5.422;2023-06-10T11:48:56;101579.78;;;29.35;29.57
71964;BME280;59834;52.124;5.422;2023-06-10T11:51:31;101567.41;;;29.60;29.60
71964;BME280;59834;52.124;5.422;2023-06-10T11:53:58;101565.34;;;29.63;29.51
71964;BME280;59834;52.124;5.422;2023-06-10T11:56:29;101561.53;;;29.50;28.37
71964;BME280;59834;52.124;5.422;2023-06-10T11:58:56;101559.91;;;29.49;28.33
71964;BME280;59834;52.124;5.422;2023-06-10T12:01:26;101567.34;;;29.41;29.19
71964;BME280;59834;52.124;5.422;2023-06-10T12:04:05;101569.50;;;29.72;29.68
71964;BME280;59834;52.124;5.422;2023-06-10T12:06:39;101562.25;;;29.72;28.84
71964;BME280;59834;52.124;5.422;2023-06-10T12:09:13;101564.94;;;29.66;28.70
71964;BME280;59834;52.124;5.422;2023-06-10T12:12:01;101555.38;;;29.76;28.79
71964;BME280;59834;52.124;5.422;2023-06-10T12:14:51;101555.13;;;29.51;28.84
71964;BME280;59834;52.124;5.422;2023-06-10T12:17:22;101550.34;;;29.53;28.92
71964;BME280;59834;52.124;5.422;2023-06-10T12:19:50;101543.53;;;29.71;28.90
71964;BME280;59834;52.124;5.422;2023-06-10T12:22:17;101532.56;;;29.79;28.27
71964;BME280;59834;52.124;5.422;2023-06-10T12:24:57;101544.59;;;29.83;28.40
71964;BME280;59834;52.124;5.422;2023-06-10T12:27:29;101538.38;;;29.76;28.14
71964;BME280;59834;52.124;5.422;2023-06-10T12:29:57;101530.69;;;29.79;28.46
71964;BME280;59834;52.124;5.422;2023-06-10T12:32:46;101538.78;;;29.99;29.67
71964;BME280;59834;52.124;5.422;2023-06-10T12:35:18;101539.63;;;29.93;28.30
71964;BME280;59834;52.124;5.422;2023-06-10T12:40:33;101539.63;;;29.73;28.88
71964;BME280;59834;52.124;5.422;2023-06-10T12:43:01;101536.91;;;29.73;28.76
71964;BME280;59834;52.124;5.422;2023-06-10T12:45:36;101534.84;;;29.69;27.57
71964;BME280;59834;52.124;5.422;2023-06-10T12:48:18;101526.53;;;29.64;27.64
71964;BME280;59834;52.124;5.422;2023-06-10T12:50:51;101531.06;;;29.56;28.04
71964;BME280;59834;52.124;5.422;2023-06-10T12:53:19;101534.16;;;29.47;28.08
71964;BME280;59834;52.124;5.422;2023-06-10T12:55:47;101539.16;;;29.56;28.37
71964;BME280;59834;52.124;5.422;2023-06-10T12:58:13;101533.38;;;29.59;28.42
71964;BME280;59834;52.124;5.422;2023-06-10T13:00:40;101534.22;;;29.67;27.84
71964;BME280;59834;52.124;5.422;2023-06-10T13:03:09;101534.22;;;29.67;28.05
71964;BME280;59834;52.124;5.422;2023-06-10T13:05:36;101530.06;;;29.84;28.13
71964;BME280;59834;52.124;5.422;2023-06-10T13:08:08;101530.47;;;29.88;27.75
71964;BME280;59834;52.124;5.422;2023-06-10T13:10:36;101537.13;;;29.85;27.30
71964;BME280;59834;52.124;5.422;2023-06-10T13:13:03;101526.94;;;30.00;27.46
71964;BME280;59834;52.124;5.422;2023-06-10T13:15:34;101520.50;;;30.21;28.10
71964;BME280;59834;52.124;5.422;2023-06-10T13:18:08;101521.34;;;30.28;27.56